Time;durP1;ratioP1;P1;durP2;ratioP2;P2;SDS_P1;SDS_P2;PMS_P1;PMS_P2;Temp;Humidity;BMP_temperature;BMP_pressure;BME280_temperature;BME280_humidity;BME280_pressure;Samples;Min_cycle;Max_cycle;Signal;HPM_P1;HPM_P2
2024/01/18 00:01:56;;;;;;;146.55;72.55;;;-1.30;99.90;;;;;;4970473;28;20620;-72
2024/01/18 00:04:23;;;;;;;144.48;70.30;;;-1.30;99.90;;;;;;4966879;28;20519;-72
2024/01/18 00:06:52;;;;;;;137.50;71.97;;;-1.20;99.90;;;;;;4969517;28;20038;-71
2024/01/18 00:09:19;;;;;;;152.10;76.07;;;-1.20;99.90;;;;;;4969988;28;20513;-71
2024/01/18 00:11:46;;;;;;;143.07;70.57;;;-1.20;99.90;;;;;;4954060;28;20055;-71
2024/01/18 00:14:13;;;;;;;149.20;71.97;;;-1.30;99.90;;;;;;4958456;28;20050;-71
2024/01/18 00:16:40;;;;;;;134.57;68.82;;;-1.30;99.90;;;;;;4964664;28;20136;-70
2024/01/18 00:19:09;;;;;;;144.88;73.07;;;-1.40;99.90;;;;;;4960553;28;20593;-72
2024/01/18 00:21:36;;;;;;;146.27;74.18;;;-1.40;99.90;;;;;;4967710;28;20031;-71
2024/01/18 00:24:03;;;;;;;151.50;73.32;;;-1.40;99.90;;;;;;4967752;28;20051;-71
2024/01/18 00:26:30;;;;;;;145.07;71.80;;;-1.30;99.90;;;;;;4967321;28;20113;-70
2024/01/18 00:28:57;;;;;;;144.27;74.65;;;-1.30;99.90;;;;;;4970206;28;20564;-72
2024/01/18 00:31:23;;;;;;;151.25;75.32;;;-1.30;99.90;;;;;;4959737;28;20043;-71
2024/01/18 00:33:52;;;;;;;158.75;77.55;;;-1.40;99.90;;;;;;4956252;28;20141;-71
2024/01/18 00:36:19;;;;;;;151.48;74.88;;;-1.30;99.90;;;;;;4961509;28;20129;-71
2024/01/18 00:38:46;;;;;;;149.70;77.47;;;-1.30;99.90;;;;;;4970176;28;20548;-71
2024/01/18 00:41:13;;;;;;;150.93;77.35;;;-1.30;99.90;;;;;;4972109;28;20529;-72
2024/01/18 00:43:39;;;;;;;143.68;74.85;;;-1.30;99.90;;;;;;4969905;28;20046;-72
2024/01/18 00:46:06;;;;;;;148.00;74.75;;;-1.30;99.90;;;;;;4972588;28;20054;-71
2024/01/18 00:48:33;;;;;;;148.70;76.07;;;-1.30;99.90;;;;;;4950142;28;20061;-71
2024/01/18 00:51:00;;;;;;;149.55;74.60;;;-1.30;99.90;;;;;;4966093;28;20053;-72
2024/01/18 00:53:27;;;;;;;158.25;77.30;;;-1.30;99.90;;;;;;4973619;28;20561;-71
2024/01/18 00:55:54;;;;;;;151.02;80.03;;;-1.30;99.90;;;;;;4972369;28;20042;-72
2024/01/18 00:58:21;;;;;;;154.10;76.55;;;-1.20;99.90;;;;;;4956706;28;20211;-72
2024/01/18 01:00:47;;;;;;;154.80;77.25;;;-1.20;99.90;;;;;;4983223;28;20055;-70
2024/01/18 01:03:14;;;;;;;149.05;75.30;;;-1.20;99.90;;;;;;4954561;28;20138;-72
2024/01/18 01:05:41;;;;;;;159.02;77.88;;;-1.20;99.90;;;;;;4957947;28;20050;-72
2024/01/18 01:08:08;;;;;;;161.60;75.72;;;-1.20;99.90;;;;;;4988067;28;20039;-72
2024/01/18 01:10:35;;;;;;;152.80;74.22;;;-1.20;99.90;;;;;;4971228;28;20046;-71
2024/01/18 01:13:02;;;;;;;154.23;75.38;;;-1.10;99.90;;;;;;4987931;28;20517;-71
2024/01/18 01:15:29;;;;;;;156.02;75.30;;;-1.10;99.90;;;;;;4961282;28;20059;-73
2024/01/18 01:17:55;;;;;;;146.63;74.70;;;-1.20;99.90;;;;;;4963751;28;20053;-71
2024/01/18 01:20:23;;;;;;;146.88;75.15;;;-1.20;99.90;;;;;;4953341;28;20046;-72
2024/01/18 01:22:49;;;;;;;154.40;73.65;;;-1.10;99.90;;;;;;4947108;28;22441;-72
2024/01/18 01:25:16;;;;;;;149.45;74.10;;;-1.20;99.90;;;;;;4953239;28;20561;-72
2024/01/18 01:27:43;;;;;;;145.50;71.97;;;-1.10;99.90;;;;;;4975840;28;20035;-73
2024/01/18 01:30:11;;;;;;;148.75;70.35;;;-1.20;99.90;;;;;;4975036;28;20049;-72
2024/01/18 01:32:38;;;;;;;133.07;68.63;;;-1.20;99.90;;;;;;4968766;28;20672;-72
2024/01/18 01:35:05;;;;;;;139.88;72.13;;;-1.20;99.90;;;;;;4971838;28;20073;-71
2024/01/18 01:37:32;;;;;;;138.45;68.30;;;-1.30;99.90;;;;;;4956432;28;20062;-71
2024/01/18 01:39:58;;;;;;;134.98;68.75;;;-1.20;99.90;;;;;;4954462;28;20145;-72
2024/01/18 01:42:25;;;;;;;129.65;65.35;;;-1.20;99.90;;;;;;4957070;28;20054;-72
2024/01/18 01:44:54;;;;;;;128.10;66.25;;;-1.20;99.90;;;;;;4951357;28;20051;-72
2024/01/18 01:47:21;;;;;;;125.15;64.18;;;-1.30;99.90;;;;;;4951002;28;20048;-72
2024/01/18 01:49:48;;;;;;;138.07;65.60;;;-1.30;99.90;;;;;;4959751;28;20521;-72
2024/01/18 01:52:16;;;;;;;121.90;65.97;;;-1.30;99.90;;;;;;4939640;28;20062;-70
2024/01/18 01:54:46;;;;;;;119.38;63.95;;;-1.20;99.90;;;;;;4950205;28;20098;-71
2024/01/18 01:57:15;;;;;;;123.32;62.75;;;-1.20;99.90;;;;;;4956445;28;20437;-71
2024/01/18 01:59:43;;;;;;;127.72;64.82;;;-1.20;99.90;;;;;;4951869;28;20054;-72
2024/01/18 02:02:12;;;;;;;117.90;62.97;;;-1.20;99.90;;;;;;4973821;28;20120;-71
2024/01/18 02:04:41;;;;;;;123.28;63.03;;;-1.30;99.90;;;;;;4973783;28;20072;-70
2024/01/18 02:07:10;;;;;;;121.63;63.13;;;-1.20;99.90;;;;;;4965994;28;20481;-72
2024/01/18 02:09:39;;;;;;;119.10;64.97;;;-1.30;99.90;;;;;;4968978;28;20654;-71
2024/01/18 02:12:08;;;;;;;110.75;62.72;;;-1.20;99.90;;;;;;4975950;28;20049;-72
2024/01/18 02:14:35;;;;;;;111.68;63.00;;;-1.20;99.90;;;;;;4971461;28;20104;-70
2024/01/18 02:17:03;;;;;;;113.28;63.78;;;-1.20;99.90;;;;;;4976289;28;20042;-69
2024/01/18 02:19:31;;;;;;;115.72;66.18;;;-1.20;99.90;;;;;;4975598;28;20042;-71
2024/01/18 02:22:01;;;;;;;122.13;63.85;;;-1.20;99.90;;;;;;4970943;28;20046;-71
2024/01/18 02:24:44;;;;;;;111.10;61.80;;;-1.30;99.90;;;;;;4965974;28;20564;-71
2024/01/18 02:27:11;;;;;;;113.45;61.78;;;-1.30;99.90;;;;;;4981140;28;20047;-70
2024/01/18 02:29:38;;;;;;;110.57;62.65;;;-1.30;99.90;;;;;;4967471;28;20137;-70
2024/01/18 02:32:05;;;;;;;108.15;60.60;;;-1.20;99.90;;;;;;4967402;28;20525;-71
2024/01/18 02:34:32;;;;;;;113.53;61.42;;;-1.30;99.90;;;;;;4964487;28;20051;-72
2024/01/18 02:36:59;;;;;;;112.90;60.55;;;-1.40;99.90;;;;;;4963000;28;20940;-70
2024/01/18 02:39:26;;;;;;;111.63;61.85;;;-1.30;99.90;;;;;;4946963;28;20063;-72
2024/01/18 02:41:54;;;;;;;107.15;61.53;;;-1.30;99.90;;;;;;4970966;28;20039;-72
2024/01/18 02:44:21;;;;;;;113.22;61.22;;;-1.50;99.90;;;;;;4964278;28;20050;-70
2024/01/18 02:46:48;;;;;;;101.88;58.90;;;-1.60;99.90;;;;;;4963440;28;20047;-70
2024/01/18 02:49:14;;;;;;;103.18;58.78;;;-1.50;99.90;;;;;;4958168;28;20087;-71
2024/01/18 02:51:41;;;;;;;107.55;60.80;;;-1.40;99.90;;;;;;4948479;28;20889;-70
2024/01/18 02:54:08;;;;;;;114.78;60.78;;;-1.30;99.90;;;;;;4971775;28;20046;-72
2024/01/18 02:56:35;;;;;;;108.18;59.35;;;-1.20;99.90;;;;;;4958021;28;20047;-72
2024/01/18 02:59:01;;;;;;;112.30;60.88;;;-1.30;99.90;;;;;;4951143;28;20186;-70
2024/01/18 03:01:28;;;;;;;106.78;58.20;;;-1.30;99.90;;;;;;4939366;28;20054;-71
2024/01/18 03:03:55;;;;;;;105.38;57.80;;;-1.30;99.90;;;;;;4954162;28;20054;-72
2024/01/18 03:06:22;;;;;;;96.53;59.38;;;-1.30;99.90;;;;;;4960219;28;20038;-69
2024/01/18 03:08:49;;;;;;;113.35;60.80;;;-1.50;99.90;;;;;;4968694;28;20042;-71
2024/01/18 03:11:16;;;;;;;99.20;57.45;;;-1.50;99.90;;;;;;4969710;28;20481;-71
2024/01/18 03:13:43;;;;;;;102.15;59.03;;;-1.40;99.90;;;;;;4947173;28;20054;-70
2024/01/18 03:16:11;;;;;;;99.95;57.40;;;-1.40;99.90;;;;;;4975695;28;20504;-72
2024/01/18 03:18:38;;;;;;;102.57;59.42;;;-1.40;99.90;;;;;;4977041;28;20093;-71
2024/01/18 03:21:06;;;;;;;100.55;58.05;;;-1.40;99.90;;;;;;4990230;28;20046;-70
2024/01/18 03:23:32;;;;;;;108.03;60.92;;;-1.40;99.90;;;;;;4967592;28;20047;-71
2024/01/18 03:25:59;;;;;;;102.10;59.40;;;-1.40;99.90;;;;;;4976670;28;20049;-71
2024/01/18 03:28:27;;;;;;;102.50;58.28;;;-1.40;99.90;;;;;;4983866;28;20042;-71
2024/01/18 03:30:53;;;;;;;111.18;61.67;;;-1.30;99.90;;;;;;4968285;28;20046;-71
2024/01/18 03:33:20;;;;;;;107.57;60.42;;;-1.40;99.90;;;;;;4981239;28;20865;-71
2024/01/18 03:35:47;;;;;;;114.40;61.80;;;-1.40;99.90;;;;;;4975151;28;22529;-72
2024/01/18 03:38:14;;;;;;;113.82;62.97;;;-1.40;99.90;;;;;;4971591;28;20053;-71
2024/01/18 03:40:41;;;;;;;114.65;62.28;;;-1.40;99.90;;;;;;4964052;28;20125;-69
2024/01/18 03:43:07;;;;;;;115.38;64.35;;;-1.30;99.90;;;;;;4980894;28;20549;-71
2024/01/18 03:45:34;;;;;;;125.28;63.85;;;-1.30;99.90;;;;;;4961885;28;20678;-71
2024/01/18 03:48:01;;;;;;;112.82;61.13;;;-1.30;99.90;;;;;;4978009;28;20607;-71
2024/01/18 03:50:28;;;;;;;107.80;62.10;;;-1.30;99.90;;;;;;4967871;28;20522;-70
2024/01/18 03:52:55;;;;;;;113.57;64.50;;;-1.40;99.90;;;;;;4969076;28;20449;-71
2024/01/18 03:55:22;;;;;;;125.70;65.82;;;-1.50;99.90;;;;;;4968633;28;20046;-72
2024/01/18 03:57:48;;;;;;;111.75;62.20;;;-1.60;99.90;;;;;;4972331;28;21354;-72
2024/01/18 04:00:15;;;;;;;131.88;65.93;;;-1.60;99.90;;;;;;4972227;28;20046;-71
2024/01/18 04:02:43;;;;;;;108.90;59.58;;;-1.70;99.90;;;;;;4959258;28;20056;-70
2024/01/18 04:05:09;;;;;;;113.78;58.60;;;-1.80;99.90;;;;;;4970178;28;20422;-71
2024/01/18 04:07:38;;;;;;;106.53;61.17;;;-1.80;99.90;;;;;;4971374;28;20062;-69
2024/01/18 04:10:07;;;;;;;107.35;60.95;;;-1.80;99.90;;;;;;4973165;28;20046;-71
2024/01/18 04:12:34;;;;;;;102.38;58.30;;;-1.70;99.90;;;;;;4969672;28;20054;-71
2024/01/18 04:15:01;;;;;;;105.80;60.63;;;-1.70;99.90;;;;;;4965720;28;20096;-71
2024/01/18 04:17:28;;;;;;;105.38;62.05;;;-1.60;99.90;;;;;;4971738;28;20050;-73
2024/01/18 04:19:55;;;;;;;98.90;60.55;;;-1.50;99.90;;;;;;4968480;28;20045;-73
2024/01/18 04:22:24;;;;;;;102.20;60.00;;;-1.60;99.90;;;;;;4969339;28;20042;-72
2024/01/18 04:24:52;;;;;;;103.60;60.85;;;-1.60;99.90;;;;;;4965411;28;20050;-72
2024/01/18 04:27:18;;;;;;;105.72;61.28;;;-1.50;99.90;;;;;;4971585;28;20050;-73
2024/01/18 04:29:45;;;;;;;103.43;58.67;;;-1.50;99.90;;;;;;4967232;28;20141;-72
2024/01/18 04:32:12;;;;;;;104.53;62.10;;;-1.50;99.90;;;;;;4967387;28;20086;-73
2024/01/18 04:34:39;;;;;;;102.32;62.08;;;-1.40;99.90;;;;;;4952470;28;20030;-73
2024/01/18 04:37:06;;;;;;;100.43;61.50;;;-1.50;99.90;;;;;;4970805;28;20069;-72
2024/01/18 04:39:32;;;;;;;102.22;61.70;;;-1.50;99.90;;;;;;4962977;28;20058;-71
2024/01/18 04:41:59;;;;;;;97.15;60.80;;;-1.50;99.90;;;;;;4968440;28;20038;-71
2024/01/18 04:44:26;;;;;;;109.30;61.90;;;-1.50;99.90;;;;;;4968699;28;20173;-71
2024/01/18 04:46:53;;;;;;;102.30;63.90;;;-1.50;99.90;;;;;;4971251;28;21566;-73
2024/01/18 04:49:20;;;;;;;107.28;67.00;;;-1.50;99.90;;;;;;4979285;28;20053;-71
2024/01/18 04:51:46;;;;;;;112.72;64.75;;;-1.50;99.90;;;;;;4965962;28;20602;-71
2024/01/18 04:54:13;;;;;;;111.18;64.05;;;-1.50;99.90;;;;;;4985348;28;20045;-73
2024/01/18 04:56:40;;;;;;;116.88;66.45;;;-1.40;99.90;;;;;;4966182;28;20046;-71
2024/01/18 04:59:08;;;;;;;111.13;64.45;;;-1.40;99.90;;;;;;4971779;28;20132;-72
2024/01/18 05:01:39;;;;;;;121.88;67.55;;;-1.40;99.90;;;;;;4971652;28;20579;-71
2024/01/18 05:04:06;;;;;;;118.80;64.72;;;-1.50;99.90;;;;;;4977783;28;20135;-71
2024/01/18 05:06:36;;;;;;;117.95;68.32;;;-1.50;99.90;;;;;;4965461;28;20125;-71
2024/01/18 05:09:02;;;;;;;119.50;67.60;;;-1.50;99.90;;;;;;4971214;28;20058;-70
2024/01/18 05:11:30;;;;;;;113.45;65.82;;;-1.50;99.90;;;;;;4963148;28;20046;-72
2024/01/18 05:13:57;;;;;;;121.47;67.75;;;-1.50;99.90;;;;;;4975448;28;20049;-71
2024/01/18 05:16:25;;;;;;;121.00;67.30;;;-1.50;99.90;;;;;;4982592;28;20038;-71
2024/01/18 05:18:52;;;;;;;119.00;68.45;;;-1.50;99.90;;;;;;4967514;28;20054;-71
2024/01/18 05:21:21;;;;;;;123.20;66.90;;;-1.60;99.90;;;;;;4960987;28;20049;-70
2024/01/18 05:23:49;;;;;;;125.95;69.25;;;-1.60;99.90;;;;;;4975986;28;20197;-72
2024/01/18 05:26:15;;;;;;;120.60;67.20;;;-1.60;99.90;;;;;;4951751;28;20050;-71
2024/01/18 05:28:42;;;;;;;121.45;67.78;;;-1.60;99.90;;;;;;4965006;28;20055;-70
2024/01/18 05:31:09;;;;;;;124.55;67.40;;;-1.60;99.90;;;;;;4956595;28;20043;-72
2024/01/18 05:33:36;;;;;;;117.53;69.50;;;-1.60;99.90;;;;;;4966373;28;20057;-71
2024/01/18 05:36:03;;;;;;;135.23;71.07;;;-1.60;99.90;;;;;;4952905;28;20051;-71
2024/01/18 05:38:33;;;;;;;134.88;69.10;;;-1.50;99.90;;;;;;4973693;28;20058;-72
2024/01/18 05:41:07;;;;;;;139.02;74.97;;;-1.40;99.90;;;;;;4953343;28;20042;-71
2024/01/18 05:43:34;;;;;;;129.10;70.05;;;-1.40;99.90;;;;;;4972315;28;20062;-70
2024/01/18 05:46:02;;;;;;;134.07;71.50;;;-1.40;99.90;;;;;;4965803;28;20919;-72
2024/01/18 05:48:29;;;;;;;136.73;67.30;;;-1.40;99.90;;;;;;4964216;28;20119;-73
2024/01/18 05:50:56;;;;;;;142.40;73.18;;;-1.40;99.90;;;;;;4969250;28;20049;-72
2024/01/18 05:53:22;;;;;;;134.40;70.22;;;-1.40;99.90;;;;;;4973474;28;20050;-72
2024/01/18 05:55:49;;;;;;;143.75;72.40;;;-1.40;99.90;;;;;;4963822;28;20043;-72
2024/01/18 05:58:16;;;;;;;137.00;71.30;;;-1.50;99.90;;;;;;4973975;28;20053;-71
2024/01/18 06:00:43;;;;;;;146.23;72.32;;;-1.50;99.90;;;;;;4967356;28;20572;-71
2024/01/18 06:03:10;;;;;;;136.52;72.90;;;-1.40;99.90;;;;;;4987970;28;20092;-72
2024/01/18 06:05:37;;;;;;;144.95;73.10;;;-1.50;99.90;;;;;;4970247;28;20034;-72
2024/01/18 06:08:04;;;;;;;162.27;76.05;;;-1.50;99.90;;;;;;4981177;28;20093;-72
2024/01/18 06:10:31;;;;;;;161.63;84.20;;;-1.50;99.90;;;;;;4974573;28;20050;-71
2024/01/18 06:12:58;;;;;;;155.05;77.20;;;-1.50;99.90;;;;;;4960904;28;20485;-72
2024/01/18 06:15:25;;;;;;;151.30;76.82;;;-1.60;99.90;;;;;;4969676;28;20082;-71
2024/01/18 06:17:51;;;;;;;154.32;77.40;;;-1.60;99.90;;;;;;4966293;28;20409;-72
2024/01/18 06:20:19;;;;;;;165.57;79.03;;;-1.50;99.90;;;;;;4986428;28;20109;-72
2024/01/18 06:22:46;;;;;;;163.30;80.75;;;-1.50;99.90;;;;;;4977936;28;20061;-71
2024/01/18 06:25:13;;;;;;;158.48;78.63;;;-1.40;99.90;;;;;;4970188;28;20042;-71
2024/01/18 06:27:40;;;;;;;161.77;78.72;;;-1.50;99.90;;;;;;4969580;28;20670;-71
2024/01/18 06:30:10;;;;;;;158.43;80.32;;;-1.50;99.90;;;;;;4969246;28;20521;-71
2024/01/18 06:32:37;;;;;;;162.73;78.40;;;-1.50;99.90;;;;;;4973773;28;20602;-72
2024/01/18 06:35:05;;;;;;;170.20;79.38;;;-1.40;99.90;;;;;;4965952;28;20050;-71
2024/01/18 06:37:32;;;;;;;164.32;77.20;;;-1.40;99.90;;;;;;4972126;28;20046;-71
2024/01/18 06:39:59;;;;;;;172.23;80.75;;;-1.40;99.90;;;;;;4966761;28;20073;-72
2024/01/18 06:42:25;;;;;;;171.32;82.07;;;-1.40;99.90;;;;;;4972144;28;20514;-72
2024/01/18 06:44:52;;;;;;;168.88;81.50;;;-1.40;99.90;;;;;;4962189;28;20064;-71
2024/01/18 06:47:19;;;;;;;153.98;81.47;;;-1.40;99.90;;;;;;4972041;28;20053;-71
2024/01/18 06:49:46;;;;;;;171.60;80.13;;;-1.50;99.90;;;;;;4972796;28;20081;-71
2024/01/18 06:52:13;;;;;;;179.02;80.72;;;-1.50;99.90;;;;;;4969478;28;20043;-71
2024/01/18 06:54:44;;;;;;;170.85;81.18;;;-1.50;99.90;;;;;;4966490;28;20417;-70
2024/01/18 06:57:11;;;;;;;170.07;81.63;;;-1.40;99.90;;;;;;4954383;28;20050;-71
2024/01/18 06:59:46;;;;;;;168.98;79.55;;;-1.40;99.90;;;;;;4974298;28;20686;-71
2024/01/18 07:02:13;;;;;;;182.25;83.75;;;-1.40;99.90;;;;;;4982791;28;20050;-70
2024/01/18 07:04:40;;;;;;;166.05;82.10;;;-1.40;99.90;;;;;;4956675;28;21282;-70
2024/01/18 07:07:07;;;;;;;167.57;82.43;;;-1.50;99.90;;;;;;4969969;28;20133;-71
2024/01/18 07:09:34;;;;;;;171.50;79.55;;;-1.40;99.90;;;;;;4972466;28;20062;-72
2024/01/18 07:12:00;;;;;;;175.60;84.88;;;-1.50;99.90;;;;;;4943930;28;20816;-70
2024/01/18 07:14:27;;;;;;;171.50;81.78;;;-1.50;99.90;;;;;;4970778;28;20684;-72
2024/01/18 07:17:00;;;;;;;169.45;81.47;;;-1.50;99.90;;;;;;4958326;28;20046;-71
2024/01/18 07:19:27;;;;;;;176.80;80.72;;;-1.50;99.90;;;;;;4972046;28;20050;-70
2024/01/18 07:21:53;;;;;;;167.00;82.32;;;-1.40;99.90;;;;;;4965940;28;20061;-72
2024/01/18 07:24:26;;;;;;;167.77;84.40;;;-1.40;99.90;;;;;;4964017;28;20073;-73
2024/01/18 07:26:53;;;;;;;162.35;79.45;;;-1.30;99.90;;;;;;4965481;28;20099;-73
2024/01/18 07:29:20;;;;;;;172.85;83.18;;;-1.30;99.90;;;;;;4972382;28;20054;-73
2024/01/18 07:31:46;;;;;;;167.30;82.50;;;-1.20;99.90;;;;;;4953334;28;20093;-74
2024/01/18 07:34:15;;;;;;;173.40;84.85;;;-1.20;99.90;;;;;;4969816;28;20065;-73
2024/01/18 07:36:45;;;;;;;162.55;81.88;;;-1.30;99.90;;;;;;4978887;28;20077;-73
2024/01/18 07:39:13;;;;;;;176.63;82.90;;;-1.30;99.90;;;;;;4955835;28;20359;-73
2024/01/18 07:41:39;;;;;;;168.25;88.05;;;-1.20;99.90;;;;;;4965186;28;20750;-74
2024/01/18 07:44:06;;;;;;;159.00;81.47;;;-1.20;99.90;;;;;;4962164;28;20075;-73
2024/01/18 07:46:33;;;;;;;162.02;81.65;;;-1.10;99.90;;;;;;4977907;28;20046;-73
2024/01/18 07:49:01;;;;;;;162.88;80.25;;;-1.20;99.90;;;;;;4965076;28;20050;-73
2024/01/18 07:51:29;;;;;;;167.85;84.00;;;-1.20;99.90;;;;;;4970879;28;20188;-73
2024/01/18 07:53:56;;;;;;;160.82;81.32;;;-1.20;99.90;;;;;;4958343;28;20102;-73
2024/01/18 07:56:22;;;;;;;164.27;81.93;;;-1.30;99.90;;;;;;4969949;28;20041;-73
2024/01/18 07:58:49;;;;;;;159.57;81.30;;;-1.30;99.90;;;;;;4971345;28;20565;-72
2024/01/18 08:01:18;;;;;;;165.02;82.90;;;-1.30;99.90;;;;;;4970352;28;20054;-72
2024/01/18 08:03:45;;;;;;;164.13;82.78;;;-1.40;99.90;;;;;;4956834;28;20078;-72
2024/01/18 08:06:12;;;;;;;152.13;79.85;;;-1.40;99.90;;;;;;4984070;28;20061;-72
2024/01/18 08:08:42;;;;;;;160.00;77.40;;;-1.30;99.90;;;;;;4972940;28;20521;-74
2024/01/18 08:11:10;;;;;;;159.60;80.70;;;-1.30;99.90;;;;;;4961433;28;20046;-75
2024/01/18 08:13:37;;;;;;;147.13;78.65;;;-1.40;99.90;;;;;;4963860;28;20108;-74
2024/01/18 08:16:03;;;;;;;153.32;78.32;;;-1.30;99.90;;;;;;4956520;28;20058;-74
2024/01/18 08:18:30;;;;;;;164.32;79.05;;;-1.30;99.90;;;;;;4972003;28;20054;-75
2024/01/18 08:20:58;;;;;;;165.32;78.40;;;-1.30;99.90;;;;;;4966875;28;20532;-74
2024/01/18 08:23:25;;;;;;;174.05;80.45;;;-1.20;99.90;;;;;;4966797;28;20053;-75
2024/01/18 08:25:52;;;;;;;163.32;78.65;;;-1.20;99.90;;;;;;4968718;28;20042;-75
2024/01/18 08:28:19;;;;;;;176.40;86.57;;;-1.30;99.90;;;;;;4970094;28;20137;-75
2024/01/18 08:30:47;;;;;;;174.02;80.82;;;-1.30;99.90;;;;;;4964805;28;20045;-74
2024/01/18 08:33:15;;;;;;;183.80;80.20;;;-1.40;99.90;;;;;;4958690;28;20129;-76
2024/01/18 08:35:42;;;;;;;181.70;78.30;;;-1.40;99.90;;;;;;4971747;28;20472;-72
2024/01/18 08:38:09;;;;;;;174.20;79.88;;;-1.40;99.90;;;;;;4967378;28;20050;-73
2024/01/18 08:40:36;;;;;;;163.60;81.15;;;-1.40;99.90;;;;;;4962392;28;20046;-73
2024/01/18 08:43:03;;;;;;;181.48;79.50;;;-1.30;99.90;;;;;;4967615;28;20121;-72
2024/01/18 08:45:30;;;;;;;166.20;79.03;;;-1.30;99.90;;;;;;4967270;28;20042;-73
2024/01/18 08:47:58;;;;;;;161.48;78.50;;;-1.30;99.90;;;;;;4967274;28;20061;-73
2024/01/18 08:50:25;;;;;;;174.43;79.70;;;-1.30;99.90;;;;;;4969827;28;20049;-73
2024/01/18 08:52:52;;;;;;;169.43;77.43;;;-1.20;99.90;;;;;;4963965;28;20050;-73
2024/01/18 08:55:19;;;;;;;176.68;78.25;;;-1.20;99.90;;;;;;4964390;28;20038;-72
2024/01/18 08:57:47;;;;;;;170.88;79.85;;;-1.10;99.90;;;;;;4984122;28;20137;-73
2024/01/18 09:00:17;;;;;;;165.88;80.05;;;-1.30;99.90;;;;;;4982858;28;20061;-73
2024/01/18 09:02:44;;;;;;;161.27;77.35;;;-1.20;99.90;;;;;;4971387;28;20038;-73
2024/01/18 09:05:11;;;;;;;167.93;78.65;;;-1.30;99.90;;;;;;4969673;28;20049;-73
2024/01/18 09:07:39;;;;;;;168.20;77.72;;;-1.30;99.90;;;;;;4956814;28;20053;-73
2024/01/18 09:10:08;;;;;;;163.50;74.22;;;-1.20;99.90;;;;;;4970048;28;20066;-72
2024/01/18 09:12:36;;;;;;;162.93;77.43;;;-1.30;99.90;;;;;;4966427;28;20038;-72
2024/01/18 09:15:03;;;;;;;161.32;79.30;;;-1.30;99.90;;;;;;4941808;28;20121;-71
2024/01/18 09:17:30;;;;;;;171.43;77.60;;;-1.40;99.90;;;;;;4977057;28;20501;-72
2024/01/18 09:19:57;;;;;;;169.70;78.68;;;-1.30;99.90;;;;;;4973503;28;20104;-70
2024/01/18 09:22:24;;;;;;;165.52;82.47;;;-1.30;99.90;;;;;;4970889;28;20038;-73
2024/01/18 09:24:51;;;;;;;182.32;81.50;;;-1.30;99.90;;;;;;4967408;28;20121;-74
2024/01/18 09:27:23;;;;;;;162.13;83.22;;;-1.20;99.90;;;;;;4959049;28;20105;-73
2024/01/18 09:29:50;;;;;;;165.30;81.90;;;-1.10;99.90;;;;;;4960327;28;20051;-75
2024/01/18 09:32:16;;;;;;;167.20;82.70;;;-1.00;99.90;;;;;;4961863;28;20070;-75
2024/01/18 09:34:43;;;;;;;153.77;79.15;;;-0.80;99.90;;;;;;4957099;28;20074;-75
2024/01/18 09:37:10;;;;;;;143.25;76.40;;;-0.90;99.90;;;;;;4955818;28;20043;-76
2024/01/18 09:39:37;;;;;;;150.80;77.25;;;-0.90;99.90;;;;;;4956140;28;20144;-75
2024/01/18 09:42:12;;;;;;;131.25;74.50;;;-0.70;99.90;;;;;;4963375;28;20042;-75
2024/01/18 09:44:44;;;;;;;134.23;77.05;;;-0.80;99.90;;;;;;4968854;28;20698;-75
2024/01/18 09:47:12;;;;;;;128.80;76.82;;;-0.80;99.90;;;;;;4950723;28;21732;-73
2024/01/18 09:49:44;;;;;;;127.75;75.72;;;-0.90;99.90;;;;;;4967346;28;20195;-74
2024/01/18 09:52:12;;;;;;;126.28;73.50;;;-1.00;99.90;;;;;;4967105;28;21181;-73
2024/01/18 09:54:39;;;;;;;130.98;75.93;;;-1.00;99.90;;;;;;4972365;28;20054;-73
2024/01/18 09:57:11;;;;;;;135.68;81.32;;;-0.90;99.90;;;;;;4969064;28;20081;-72
2024/01/18 09:59:42;;;;;;;135.27;79.50;;;-1.00;99.90;;;;;;4991145;28;20054;-75
2024/01/18 10:02:09;;;;;;;135.68;80.13;;;-1.00;99.90;;;;;;4981549;28;20587;-71
2024/01/18 10:04:36;;;;;;;145.98;84.13;;;-1.00;99.90;;;;;;4965819;28;20043;-73
2024/01/18 10:07:04;;;;;;;125.95;76.18;;;-0.80;99.90;;;;;;4954010;28;21453;-71
2024/01/18 10:09:31;;;;;;;141.15;79.22;;;-0.60;99.90;;;;;;4975594;28;20058;-71
2024/01/18 10:11:58;;;;;;;144.88;81.30;;;-0.60;99.90;;;;;;4967254;28;20057;-72
2024/01/18 10:14:40;;;;;;;144.77;82.00;;;-0.60;99.90;;;;;;4969235;28;20054;-71
2024/01/18 10:17:07;;;;;;;133.48;79.05;;;-0.60;99.90;;;;;;4970412;28;20050;-72
2024/01/18 10:19:34;;;;;;;128.32;75.82;;;-0.50;99.90;;;;;;4968551;28;20077;-71
2024/01/18 10:22:01;;;;;;;137.27;79.13;;;-0.60;99.90;;;;;;4962727;28;20031;-72
2024/01/18 10:24:29;;;;;;;125.93;78.20;;;-0.50;99.90;;;;;;4949801;28;20517;-72
2024/01/18 10:27:04;;;;;;;150.10;81.65;;;-0.40;99.90;;;;;;4962452;28;20420;-72
2024/01/18 10:29:37;;;;;;;137.82;80.03;;;-0.30;99.90;;;;;;4992126;28;20073;-72
2024/01/18 10:32:06;;;;;;;125.55;77.13;;;-0.30;99.90;;;;;;4991514;28;20058;-72
2024/01/18 10:34:35;;;;;;;128.50;77.90;;;-0.40;99.90;;;;;;4975391;28;20074;-72
2024/01/18 10:37:03;;;;;;;123.32;75.25;;;-0.40;99.90;;;;;;4961092;28;20096;-73
2024/01/18 10:39:40;;;;;;;134.50;78.50;;;-0.40;99.90;;;;;;4972655;28;20265;-72
2024/01/18 10:42:09;;;;;;;126.00;76.10;;;-0.30;99.90;;;;;;4965886;28;20515;-72
2024/01/18 10:44:43;;;;;;;117.90;75.28;;;-0.20;99.90;;;;;;4981813;28;20132;-73
2024/01/18 10:47:10;;;;;;;;;;;0.00;99.90;;;;;;4966577;28;20046;-72
2024/01/18 10:49:38;;;;;;;117.80;74.93;;;0.00;99.90;;;;;;4967371;28;20369;-73
2024/01/18 10:52:07;;;;;;;120.72;73.15;;;0.00;99.90;;;;;;4969113;28;20053;-72
2024/01/18 10:54:34;;;;;;;136.10;79.63;;;-0.20;99.90;;;;;;4985736;28;20058;-73
2024/01/18 10:57:04;;;;;;;144.13;78.20;;;-0.10;99.90;;;;;;4966418;28;20046;-72
2024/01/18 10:59:31;;;;;;;127.70;75.63;;;0.00;99.90;;;;;;4969554;28;20053;-73
2024/01/18 11:02:00;;;;;;;117.10;74.53;;;0.10;99.90;;;;;;4972601;28;20057;-72
2024/01/18 11:04:28;;;;;;;125.65;76.75;;;0.10;99.90;;;;;;4974006;28;20074;-73
2024/01/18 11:06:56;;;;;;;118.07;72.38;;;0.00;99.90;;;;;;4967887;28;20124;-72
2024/01/18 11:09:26;;;;;;;137.88;82.35;;;-0.10;99.90;;;;;;4967736;28;20086;-75
2024/01/18 11:11:55;;;;;;;138.70;80.55;;;-0.20;99.90;;;;;;4969230;28;20050;-73
2024/01/18 11:14:25;;;;;;;137.80;75.10;;;-0.10;99.90;;;;;;4964080;28;20050;-72
2024/01/18 11:16:51;;;;;;;133.50;75.80;;;-0.10;99.90;;;;;;4952709;28;20589;-72
2024/01/18 11:19:44;;;;;;;123.57;71.03;;;-0.10;99.90;;;;;;4949244;28;20047;-71
2024/01/18 11:22:25;;;;;;;123.90;76.63;;;0.00;99.90;;;;;;4962813;28;20057;-71
2024/01/18 11:24:52;;;;;;;136.32;79.47;;;-0.20;99.90;;;;;;4969330;28;20053;-72
2024/01/18 11:27:21;;;;;;;129.18;78.05;;;-0.10;99.90;;;;;;4968256;28;20054;-71
2024/01/18 11:29:49;;;;;;;134.13;77.40;;;-0.10;99.90;;;;;;4972396;28;20050;-72
2024/01/18 11:32:20;;;;;;;128.68;77.85;;;-0.10;99.90;;;;;;4948340;28;20050;-72
2024/01/18 11:34:49;;;;;;;136.13;77.70;;;-0.10;99.90;;;;;;4950288;28;20150;-73
2024/01/18 11:37:24;;;;;;;130.50;74.55;;;-0.10;99.90;;;;;;4962661;28;20038;-73
2024/01/18 11:39:53;;;;;;;132.23;76.38;;;-0.10;99.90;;;;;;4949672;28;20051;-74
2024/01/18 11:42:29;;;;;;;128.73;76.45;;;-0.10;99.90;;;;;;4966212;28;20034;-71
2024/01/18 11:45:03;;;;;;;129.07;75.07;;;-0.20;99.90;;;;;;4968201;28;20126;-72
2024/01/18 11:47:32;;;;;;;138.40;77.18;;;-0.20;99.90;;;;;;4984834;28;20047;-72
2024/01/18 11:50:08;;;;;;;138.93;75.32;;;-0.20;99.90;;;;;;4970097;28;20567;-72
2024/01/18 11:52:36;;;;;;;135.38;75.82;;;-0.20;99.90;;;;;;4985862;28;20169;-73
2024/01/18 11:55:04;;;;;;;123.80;71.82;;;-0.20;99.90;;;;;;4962908;28;20700;-74
2024/01/18 11:57:32;;;;;;;138.93;80.72;;;-0.20;99.90;;;;;;4969743;28;20644;-74
2024/01/18 12:00:00;;;;;;;145.75;84.10;;;-0.30;99.90;;;;;;4971593;28;20546;-74
2024/01/18 12:02:28;;;;;;;150.85;84.55;;;-0.30;99.90;;;;;;4961991;28;20164;-75
2024/01/18 12:04:56;;;;;;;148.60;81.65;;;-0.20;99.90;;;;;;4952395;28;20035;-74
2024/01/18 12:07:25;;;;;;;143.43;79.55;;;-0.30;99.90;;;;;;4967909;28;20057;-75
2024/01/18 12:09:52;;;;;;;149.70;80.85;;;-0.40;99.90;;;;;;4971567;28;20046;-72
2024/01/18 12:12:19;;;;;;;142.77;80.85;;;-0.50;99.90;;;;;;4963792;28;20162;-72
2024/01/18 12:14:50;;;;;;;135.90;75.68;;;-0.40;99.90;;;;;;4958434;28;20482;-73
2024/01/18 12:17:17;;;;;;;140.25;76.50;;;-0.40;99.90;;;;;;4948230;28;20498;-72
2024/01/18 12:19:45;;;;;;;144.10;79.53;;;-0.30;99.90;;;;;;4971045;28;20035;-73
2024/01/18 12:22:17;;;;;;;134.63;78.85;;;-0.20;99.90;;;;;;4969822;28;20053;-74